Wan Hai 232 — S6EL2 — position and weather

sailwx.info

Track history (hours):
 
Tides and Currents Weather Stations Pressure Air Temp Water Temp Dewpoint Dewpoint Depression Visibility Wind Speed Wind Dir Waves Ship Positions

Wan Hai 232

Last reported at 2017-Nov-19 19:52 UTC. Time now 2017-Nov-21 19:17 UTC.
Position N 22°49' E 120°04'.

Length 191 m; draft 10 m.

Type: Cargo ship. MMSI: 565131000.

Date/timePositionNaut miles runAvg speedWind from/ knotsBaromVisibWave heightAir tempDewpointWater temp
2017-Nov-19 19:52N 22°49' E 120°04'616.2
2017-Nov-19 19:30N 22°44' E 120°07'815.4
2017-Nov-19 19:00N 22°38' E 120°12'5 9.5
2017-Nov-19 18:30N 22°36' E 120°17'2 2.5
2017-Nov-19 17:39N 22°35' E 120°18'0 0.0
2017-Nov-19 17:30N 22°35' E 120°18'0 0.1
2017-Nov-19 16:54N 22°35' E 120°18'0 0.1
2017-Nov-19 15:51N 22°35' E 120°18'0 0.1
2017-Nov-19 15:18N 22°35' E 120°18'0 0.2
2017-Nov-19 14:58N 22°35' E 120°18'0 0.1
2017-Nov-19 14:23N 22°35' E 120°18'0 0.1
2017-Nov-19 13:41N 22°35' E 120°18'0 0.0
2017-Nov-19 13:26N 22°35' E 120°18'0 0.0
2017-Nov-19 12:58N 22°35' E 120°18'0 0.0
2017-Nov-19 12:28N 22°35' E 120°18'0 0.1
2017-Nov-19 11:43N 22°35' E 120°18'0 0.2
2017-Nov-19 11:29N 22°35' E 120°18'0 0.0
2017-Nov-19 10:19N 22°35' E 120°18'0 0.0
2017-Nov-19 09:25N 22°35' E 120°18'0 0.5
2017-Nov-19 09:00N 22°35' E 120°18'4 7.6
2017-Nov-19 08:30N 22°37' E 120°15'3 6.5
2017-Nov-19 08:00N 22°37' E 120°12'4 8.9
2017-Nov-19 07:30N 22°37' E 120°07'816.9
2017-Nov-19 07:00N 22°35' E 119°58'28512.8
2017-Nov-18 08:46N 22°09' E 114°51'616.2
2017-Nov-18 08:25N 22°08' E 114°45'716.1
2017-Nov-18 08:00N 22°08' E 114°38'816.5
2017-Nov-18 07:30N 22°07' E 114°29'916.6
2017-Nov-18 06:59N 22°07' E 114°20'912.5
2017-Nov-18 06:16N 22°11' E 114°11'312.3
2017-Nov-18 06:00N 22°13' E 114°09'510.1
2017-Nov-18 05:28N 22°18' E 114°06'3 0.1
2017-Nov-17 07:51N 22°20' E 114°08'3 6.5
2017-Nov-17 07:28N 22°18' E 114°06'12 9.3
2017-Nov-17 06:11N 22°09' E 114°14'3 9.2
2017-Nov-17 05:52N 22°08' E 114°17'3 9.3
2017-Nov-17 05:30N 22°08' E 114°20'612.5
2017-Nov-17 05:00N 22°08' E 114°27'816.3
2017-Nov-17 04:30N 22°10' E 114°36'816.5
2017-Nov-17 04:00N 22°13' E 114°44'816.6
2017-Nov-17 03:30N 22°16' E 114°52'816.6
2017-Nov-17 03:00N 22°19' E 115°01'816.6
2017-Nov-17 02:30N 22°22' E 115°09'  
2017-Nov-11 03:29N 34°08' E 134°58'714.6
2017-Nov-11 02:59N 34°15' E 134°58'713.7
2017-Nov-11 02:29N 34°22' E 135°00'816.1
2017-Nov-11 02:01N 34°27' E 135°07'816.4
2017-Nov-11 01:31N 34°32' E 135°14'714.1
2017-Nov-11 01:00N 34°39' E 135°16'2 3.3
2017-Nov-11 00:30N 34°41' E 135°15'0 0.0
2017-Nov-10 23:57N 34°41' E 135°15'0 0.0
2017-Nov-10 23:27N 34°41' E 135°15'0 0.0
2017-Nov-10 22:39N 34°41' E 135°15'0 0.0
2017-Nov-10 22:15N 34°41' E 135°15'0 0.0
2017-Nov-10 21:57N 34°41' E 135°15'0 0.0
2017-Nov-10 21:27N 34°41' E 135°15'0 0.0
2017-Nov-10 20:57N 34°41' E 135°15'0 0.0
2017-Nov-10 20:21N 34°41' E 135°15'0 0.0
2017-Nov-10 19:57N 34°41' E 135°15'0 0.0
2017-Nov-10 19:27N 34°41' E 135°15'0 0.0
2017-Nov-10 18:57N 34°41' E 135°15'0 0.0
2017-Nov-10 18:27N 34°41' E 135°15'0 0.0
2017-Nov-10 17:57N 34°41' E 135°15'0 0.1
2017-Nov-10 17:27N 34°41' E 135°15'0 0.1
2017-Nov-10 16:51N 34°41' E 135°15'0 0.0
2017-Nov-10 16:09N 34°41' E 135°15'0 0.0
2017-Nov-10 15:51N 34°41' E 135°15'0 0.0
2017-Nov-10 15:27N 34°41' E 135°15'0 0.0
2017-Nov-10 14:57N 34°41' E 135°15'0 0.0
2017-Nov-10 14:27N 34°41' E 135°15'0 0.0
2017-Nov-10 13:57N 34°41' E 135°15'0 0.0
2017-Nov-10 13:21N 34°41' E 135°15'0 0.1
2017-Nov-10 13:00N 34°41' E 135°15'2 3.4
2017-Nov-10 12:30N 34°39' E 135°16'4 8.8
2017-Nov-10 12:00N 34°39' E 135°21'4 7.8
2017-Nov-10 11:31N 34°39' E 135°26'0 0.4
2017-Nov-10 10:58N 34°39' E 135°26'0 0.0
2017-Nov-10 10:10N 34°39' E 135°26'0 0.0
2017-Nov-10 09:52N 34°39' E 135°26'0 0.0
2017-Nov-10 09:28N 34°39' E 135°26'0 0.0
2017-Nov-10 08:58N 34°39' E 135°26'0 0.0
2017-Nov-10 08:28N 34°39' E 135°26'0 0.0
2017-Nov-10 07:52N 34°39' E 135°26'0 0.0
2017-Nov-10 07:28N 34°39' E 135°26'0 0.0
2017-Nov-10 06:58N 34°39' E 135°26'0 0.0
2017-Nov-10 06:28N 34°39' E 135°26'0 0.0
2017-Nov-10 05:58N 34°39' E 135°26'0 0.0
2017-Nov-10 05:28N 34°39' E 135°26'0 0.0
2017-Nov-10 04:46N 34°39' E 135°26'0 0.0
2017-Nov-10 04:28N 34°39' E 135°26'0 0.0
2017-Nov-10 03:52N 34°39' E 135°26'0 0.0
2017-Nov-10 02:14N 34°39' E 135°26'1 2.9
2017-Nov-10 01:59N 34°39' E 135°25'5 9.5
2017-Nov-10 01:29N 34°36' E 135°20'715.2
2017-Nov-10 01:00N 34°31' E 135°14'815.9
2017-Nov-10 00:30N 34°25' E 135°07'816.3
2017-Nov-10 00:00N 34°19' E 135°00'714.8
2017-Nov-09 23:30N 34°12' E 134°59'612.8
2017-Nov-09 23:00N 34°05' E 134°59'815.5
2017-Nov-09 22:29N 33°58' E 134°56'  
Track history (hours):
 
Tides and Currents Weather Stations Pressure Air Temp Water Temp Dewpoint Dewpoint Depression Visibility Wind Speed Wind Dir Waves Ship Positions

Wan Hai 232

Last reported at 2017-Nov-19 19:52 UTC. Time now 2017-Nov-21 19:17 UTC.
Position N 22°49' E 120°04'.

Length 191 m; draft 10 m.

Type: Cargo ship. MMSI: 565131000.

Date/timePositionNaut miles runAvg speedWind from/ knotsBaromVisibWave heightAir tempDewpointWater temp
2017-Nov-19 19:52N 22°49' E 120°04'616.2
2017-Nov-19 19:30N 22°44' E 120°07'815.4
2017-Nov-19 19:00N 22°38' E 120°12'5 9.5
2017-Nov-19 18:30N 22°36' E 120°17'2 2.5
2017-Nov-19 17:39N 22°35' E 120°18'0 0.0
2017-Nov-19 17:30N 22°35' E 120°18'0 0.1
2017-Nov-19 16:54N 22°35' E 120°18'0 0.1
2017-Nov-19 15:51N 22°35' E 120°18'0 0.1
2017-Nov-19 15:18N 22°35' E 120°18'0 0.2
2017-Nov-19 14:58N 22°35' E 120°18'0 0.1
2017-Nov-19 14:23N 22°35' E 120°18'0 0.1
2017-Nov-19 13:41N 22°35' E 120°18'0 0.0
2017-Nov-19 13:26N 22°35' E 120°18'0 0.0
2017-Nov-19 12:58N 22°35' E 120°18'0 0.0
2017-Nov-19 12:28N 22°35' E 120°18'0 0.1
2017-Nov-19 11:43N 22°35' E 120°18'0 0.2
2017-Nov-19 11:29N 22°35' E 120°18'0 0.0
2017-Nov-19 10:19N 22°35' E 120°18'0 0.0
2017-Nov-19 09:25N 22°35' E 120°18'0 0.5
2017-Nov-19 09:00N 22°35' E 120°18'4 7.6
2017-Nov-19 08:30N 22°37' E 120°15'3 6.5
2017-Nov-19 08:00N 22°37' E 120°12'4 8.9
2017-Nov-19 07:30N 22°37' E 120°07'816.9
2017-Nov-19 07:00N 22°35' E 119°58'28512.8
2017-Nov-18 08:46N 22°09' E 114°51'616.2
2017-Nov-18 08:25N 22°08' E 114°45'716.1
2017-Nov-18 08:00N 22°08' E 114°38'816.5
2017-Nov-18 07:30N 22°07' E 114°29'916.6
2017-Nov-18 06:59N 22°07' E 114°20'912.5
2017-Nov-18 06:16N 22°11' E 114°11'312.3
2017-Nov-18 06:00N 22°13' E 114°09'510.1
2017-Nov-18 05:28N 22°18' E 114°06'3 0.1
2017-Nov-17 07:51N 22°20' E 114°08'3 6.5
2017-Nov-17 07:28N 22°18' E 114°06'12 9.3
2017-Nov-17 06:11N 22°09' E 114°14'3 9.2
2017-Nov-17 05:52N 22°08' E 114°17'3 9.3
2017-Nov-17 05:30N 22°08' E 114°20'612.5
2017-Nov-17 05:00N 22°08' E 114°27'816.3
2017-Nov-17 04:30N 22°10' E 114°36'816.5
2017-Nov-17 04:00N 22°13' E 114°44'816.6
2017-Nov-17 03:30N 22°16' E 114°52'816.6
2017-Nov-17 03:00N 22°19' E 115°01'816.6
2017-Nov-17 02:30N 22°22' E 115°09'  
2017-Nov-11 03:29N 34°08' E 134°58'714.6
2017-Nov-11 02:59N 34°15' E 134°58'713.7
2017-Nov-11 02:29N 34°22' E 135°00'816.1
2017-Nov-11 02:01N 34°27' E 135°07'816.4
2017-Nov-11 01:31N 34°32' E 135°14'714.1
2017-Nov-11 01:00N 34°39' E 135°16'2 3.3
2017-Nov-11 00:30N 34°41' E 135°15'0 0.0
2017-Nov-10 23:57N 34°41' E 135°15'0 0.0
2017-Nov-10 23:27N 34°41' E 135°15'0 0.0
2017-Nov-10 22:39N 34°41' E 135°15'0 0.0
2017-Nov-10 22:15N 34°41' E 135°15'0 0.0
2017-Nov-10 21:57N 34°41' E 135°15'0 0.0
2017-Nov-10 21:27N 34°41' E 135°15'0 0.0
2017-Nov-10 20:57N 34°41' E 135°15'0 0.0
2017-Nov-10 20:21N 34°41' E 135°15'0 0.0
2017-Nov-10 19:57N 34°41' E 135°15'0 0.0
2017-Nov-10 19:27N 34°41' E 135°15'0 0.0
2017-Nov-10 18:57N 34°41' E 135°15'0 0.0
2017-Nov-10 18:27N 34°41' E 135°15'0 0.0
2017-Nov-10 17:57N 34°41' E 135°15'0 0.1
2017-Nov-10 17:27N 34°41' E 135°15'0 0.1
2017-Nov-10 16:51N 34°41' E 135°15'0 0.0
2017-Nov-10 16:09N 34°41' E 135°15'0 0.0
2017-Nov-10 15:51N 34°41' E 135°15'0 0.0
2017-Nov-10 15:27N 34°41' E 135°15'0 0.0
2017-Nov-10 14:57N 34°41' E 135°15'0 0.0
2017-Nov-10 14:27N 34°41' E 135°15'0 0.0
2017-Nov-10 13:57N 34°41' E 135°15'0 0.0
2017-Nov-10 13:21N 34°41' E 135°15'0 0.1
2017-Nov-10 13:00N 34°41' E 135°15'2 3.4
2017-Nov-10 12:30N 34°39' E 135°16'4 8.8
2017-Nov-10 12:00N 34°39' E 135°21'4 7.8
2017-Nov-10 11:31N 34°39' E 135°26'0 0.4
2017-Nov-10 10:58N 34°39' E 135°26'0 0.0
2017-Nov-10 10:10N 34°39' E 135°26'0 0.0
2017-Nov-10 09:52N 34°39' E 135°26'0 0.0
2017-Nov-10 09:28N 34°39' E 135°26'0 0.0
2017-Nov-10 08:58N 34°39' E 135°26'0 0.0
2017-Nov-10 08:28N 34°39' E 135°26'0 0.0
2017-Nov-10 07:52N 34°39' E 135°26'0 0.0
2017-Nov-10 07:28N 34°39' E 135°26'0 0.0
2017-Nov-10 06:58N 34°39' E 135°26'0 0.0
2017-Nov-10 06:28N 34°39' E 135°26'0 0.0
2017-Nov-10 05:58N 34°39' E 135°26'0 0.0
2017-Nov-10 05:28N 34°39' E 135°26'0 0.0
2017-Nov-10 04:46N 34°39' E 135°26'0 0.0
2017-Nov-10 04:28N 34°39' E 135°26'0 0.0
2017-Nov-10 03:52N 34°39' E 135°26'0 0.0
2017-Nov-10 02:14N 34°39' E 135°26'1 2.9
2017-Nov-10 01:59N 34°39' E 135°25'5 9.5
2017-Nov-10 01:29N 34°36' E 135°20'715.2
2017-Nov-10 01:00N 34°31' E 135°14'815.9
2017-Nov-10 00:30N 34°25' E 135°07'816.3
2017-Nov-10 00:00N 34°19' E 135°00'714.8
2017-Nov-09 23:30N 34°12' E 134°59'612.8
2017-Nov-09 23:00N 34°05' E 134°59'815.5
2017-Nov-09 22:29N 33°58' E 134°56'  

Dump ship's entire track history